createdAt,value
2017-09-15T03:30:32.498Z,0.82
2017-09-15T03:33:00.845Z,0.68
2017-09-15T03:35:28.475Z,0.68
2017-09-15T03:37:56.058Z,0.62
2017-09-15T03:40:23.642Z,0.73
2017-09-15T03:42:51.261Z,0.60
2017-09-15T03:45:18.842Z,0.70
2017-09-15T03:47:46.422Z,1.10
2017-09-15T03:50:14.302Z,1.05
2017-09-15T03:52:42.682Z,1.15
2017-09-15T03:55:11.054Z,0.98
2017-09-15T03:57:39.429Z,0.95
2017-09-15T04:00:07.777Z,1.58
2017-09-15T04:02:35.474Z,1.17
2017-09-15T04:05:03.821Z,1.10
2017-09-15T04:07:31.510Z,0.82
2017-09-15T04:09:59.985Z,1.23
2017-09-15T04:12:28.361Z,1.12
2017-09-15T04:14:56.711Z,1.12
2017-09-15T04:17:24.313Z,1.35
2017-09-15T04:19:52.678Z,1.20
2017-09-15T04:22:21.025Z,1.33
2017-09-15T04:24:48.659Z,1.17
2017-09-15T04:27:16.242Z,1.10
2017-09-15T04:29:43.832Z,1.08
2017-09-15T04:32:12.201Z,1.20
2017-09-15T04:34:40.550Z,1.00
2017-09-15T04:37:08.137Z,1.30
2017-09-15T04:39:36.506Z,1.05
2017-09-15T04:42:04.086Z,0.95
2017-09-15T04:44:32.425Z,1.40
2017-09-15T04:47:00.054Z,1.37
2017-09-15T04:49:27.638Z,1.65
2017-09-15T04:51:55.238Z,1.20
2017-09-15T04:54:23.741Z,1.20
2017-09-15T04:56:51.378Z,1.17
2017-09-15T04:59:19.749Z,1.00
2017-09-15T05:01:48.123Z,0.90
2017-09-15T05:04:16.497Z,1.00
2017-09-15T05:06:44.878Z,1.17
2017-09-15T05:09:13.230Z,1.52
2017-09-15T05:11:41.022Z,1.02
2017-09-15T05:14:09.371Z,1.30
2017-09-15T05:16:37.060Z,1.12
2017-09-15T05:19:05.434Z,1.00
2017-09-15T05:21:33.779Z,1.12
2017-09-15T05:24:01.397Z,1.25
2017-09-15T05:26:28.973Z,1.00
2017-09-15T05:28:56.598Z,0.90
2017-09-15T05:31:25.124Z,0.90
2017-09-15T05:33:52.701Z,1.12
2017-09-15T05:36:20.277Z,1.30
2017-09-15T05:38:48.874Z,0.77
2017-09-15T05:41:17.298Z,1.33
2017-09-15T05:43:45.010Z,1.30
2017-09-15T05:46:13.382Z,0.90
2017-09-15T05:48:41.766Z,0.93
2017-09-15T05:51:10.175Z,0.85
2017-09-15T05:53:37.751Z,1.70
2017-09-15T05:56:05.370Z,1.37
2017-09-15T05:58:33.838Z,1.20
2017-09-15T06:01:02.221Z,1.10
2017-09-15T06:03:30.582Z,1.45
2017-09-15T06:05:58.213Z,1.50
2017-09-15T06:08:25.810Z,1.98
2017-09-15T06:10:54.154Z,1.42
2017-09-15T06:13:21.762Z,1.92
2017-09-15T06:15:49.349Z,1.67
2017-09-15T06:18:16.972Z,1.95
2017-09-15T06:20:44.574Z,1.80
2017-09-15T06:23:12.157Z,1.85
2017-09-15T06:25:39.917Z,1.55
2017-09-15T06:28:07.502Z,2.00
2017-09-15T06:30:35.881Z,1.70
2017-09-15T06:33:04.278Z,2.00
2017-09-15T06:35:31.921Z,1.73
2017-09-15T06:38:00.298Z,1.80
2017-09-15T06:40:28.882Z,2.03
2017-09-15T06:42:57.231Z,1.73
2017-09-15T06:45:24.814Z,2.12
2017-09-15T06:47:53.206Z,1.75
2017-09-15T06:50:20.782Z,1.70
2017-09-15T06:52:48.365Z,2.33
2017-09-15T06:55:16.180Z,2.12
2017-09-15T06:57:44.562Z,1.58
2017-09-15T07:00:12.939Z,2.00
2017-09-15T07:02:41.414Z,2.10
2017-09-15T07:05:09.762Z,1.77
2017-09-15T07:07:37.343Z,2.10
2017-09-15T07:10:06.847Z,2.40
2017-09-15T07:12:35.218Z,2.28
2017-09-15T07:15:03.572Z,1.73
2017-09-15T07:17:31.178Z,1.70
2017-09-15T07:19:58.822Z,2.00
2017-09-15T07:22:27.170Z,1.52
2017-09-15T07:24:54.774Z,2.30
2017-09-15T07:27:22.413Z,2.15
2017-09-15T07:29:50.766Z,1.50
2017-09-15T07:32:18.662Z,2.40
2017-09-15T07:34:47.010Z,2.05
2017-09-15T07:37:14.594Z,1.98
2017-09-15T07:39:42.991Z,1.85
2017-09-15T07:42:10.575Z,1.85
2017-09-15T07:44:38.191Z,1.90
2017-09-15T07:47:06.586Z,2.30
2017-09-15T07:49:34.223Z,2.00
2017-09-15T07:52:02.574Z,1.87
2017-09-15T07:54:30.173Z,2.28
2017-09-15T07:56:58.538Z,2.35
2017-09-15T07:59:26.944Z,2.42
2017-09-15T08:01:54.522Z,2.20
2017-09-15T08:04:22.144Z,2.15
2017-09-15T08:06:50.618Z,2.10
2017-09-15T08:09:18.208Z,2.00
2017-09-15T08:11:45.939Z,1.83
2017-09-15T08:14:14.291Z,1.90
2017-09-15T08:16:41.969Z,2.28
2017-09-15T08:19:10.349Z,2.03
2017-09-15T08:21:38.698Z,1.95
2017-09-15T08:24:06.310Z,2.78
2017-09-15T08:26:33.895Z,1.73
2017-09-15T08:29:01.477Z,2.28
2017-09-15T08:31:29.170Z,2.05
2017-09-15T08:33:57.526Z,2.05
2017-09-15T08:36:25.109Z,1.83
2017-09-15T08:38:52.966Z,1.83
2017-09-15T08:41:21.318Z,2.42
2017-09-15T08:43:48.935Z,2.47
2017-09-15T08:46:16.566Z,2.12
2017-09-15T08:48:44.957Z,2.22
2017-09-15T08:51:12.546Z,1.90
2017-09-15T08:53:40.134Z,1.80
2017-09-15T08:56:07.741Z,2.50
2017-09-15T08:58:35.325Z,2.12
2017-09-15T09:01:03.032Z,2.10
2017-09-15T09:03:31.390Z,2.00
2017-09-15T09:05:58.974Z,1.70
2017-09-15T09:08:27.429Z,2.12
2017-09-15T09:10:55.018Z,2.20
2017-09-15T09:13:22.606Z,1.85
2017-09-15T09:15:50.222Z,2.00
2017-09-15T09:18:18.574Z,2.15
2017-09-15T09:20:46.266Z,1.80
2017-09-15T09:23:14.730Z,1.80
2017-09-15T09:25:42.314Z,2.08
2017-09-15T09:28:09.964Z,2.20
2017-09-15T09:30:38.438Z,1.95
2017-09-15T09:33:06.814Z,1.83
2017-09-15T09:35:35.199Z,1.70
2017-09-15T09:38:03.602Z,1.80
2017-09-15T09:40:31.200Z,1.92
2017-09-15T09:42:58.895Z,1.60
2017-09-15T09:45:27.294Z,1.77
2017-09-15T09:47:54.931Z,1.50
2017-09-15T09:50:23.313Z,1.73
2017-09-15T09:52:50.925Z,1.50
2017-09-15T09:55:18.518Z,2.03
2017-09-15T09:57:46.862Z,1.37
2017-09-15T10:00:14.575Z,1.45
2017-09-15T10:02:42.166Z,1.63
2017-09-15T10:05:09.787Z,1.20
2017-09-15T10:07:38.174Z,1.73
2017-09-15T10:10:05.758Z,1.40
2017-09-15T10:12:33.385Z,1.30
2017-09-15T10:15:01.790Z,1.43
2017-09-15T10:17:29.413Z,1.30
2017-09-15T10:19:57.770Z,1.53
2017-09-15T10:22:25.667Z,1.50
2017-09-15T10:24:54.017Z,1.43
2017-09-15T10:27:21.590Z,1.43
2017-09-15T10:29:49.957Z,1.30
2017-09-15T10:32:17.539Z,1.53
2017-09-15T10:34:45.194Z,2.13
2017-09-15T10:37:13.538Z,1.30
2017-09-15T10:39:42.633Z,1.30
2017-09-15T10:42:10.322Z,1.40
2017-09-15T10:44:38.674Z,1.47
2017-09-15T10:47:06.324Z,1.83
2017-09-15T10:49:34.126Z,1.40
2017-09-15T10:52:02.475Z,1.53
2017-09-15T10:54:30.166Z,1.80
2017-09-15T10:56:58.575Z,1.80
2017-09-15T11:02:31.230Z,1.40
2017-09-15T11:04:59.582Z,1.27
2017-09-15T11:07:27.267Z,1.70
2017-09-15T11:09:55.851Z,1.27
2017-09-15T11:12:24.206Z,1.43
2017-09-15T11:14:51.890Z,1.20
2017-09-15T11:17:20.265Z,1.20
2017-09-15T11:19:48.614Z,1.50
2017-09-15T11:22:16.308Z,1.60
2017-09-15T11:24:44.756Z,1.30
2017-09-15T11:27:12.342Z,1.50
2017-09-15T11:29:40.717Z,1.33
2017-09-15T11:32:09.257Z,1.20
2017-09-15T11:34:36.859Z,1.40
2017-09-15T11:37:05.214Z,1.43
2017-09-15T11:39:32.819Z,1.70
2017-09-15T11:42:00.581Z,1.50
2017-09-15T11:44:28.166Z,1.43
2017-09-15T11:46:55.750Z,1.57
2017-09-15T11:49:24.158Z,1.60
2017-09-15T11:51:52.535Z,1.13
2017-09-15T11:54:20.891Z,1.30
2017-09-15T11:56:48.570Z,1.37
2017-09-15T11:59:16.919Z,1.40
2017-09-15T12:01:44.616Z,1.23
2017-09-15T12:04:13.034Z,1.20
2017-09-15T12:06:40.623Z,1.13
2017-09-15T12:09:08.219Z,1.10
2017-09-15T12:11:35.986Z,1.23
2017-09-15T12:14:03.568Z,1.00
2017-09-15T12:16:31.154Z,0.90
2017-09-15T12:18:58.954Z,1.30
2017-09-15T12:21:26.548Z,1.40
2017-09-15T12:23:54.134Z,1.33
2017-09-15T12:26:21.784Z,1.40
2017-09-15T12:28:49.413Z,1.20
2017-09-15T12:31:16.991Z,1.13
2017-09-15T12:33:44.574Z,1.40
2017-09-15T12:36:12.210Z,1.13
2017-09-15T12:38:39.794Z,0.90
2017-09-15T12:41:07.378Z,1.33
2017-09-15T12:43:35.767Z,1.30
2017-09-15T12:46:03.345Z,1.17
2017-09-15T12:48:30.921Z,1.10
2017-09-15T12:50:58.521Z,1.20
2017-09-15T12:53:26.102Z,1.20
2017-09-15T12:55:53.762Z,1.20
2017-09-15T12:58:22.110Z,1.50
2017-09-15T13:00:49.697Z,1.50
2017-09-15T13:03:17.337Z,1.40
2017-09-15T13:05:44.913Z,1.03
2017-09-15T13:08:13.271Z,1.53
2017-09-15T13:10:40.877Z,1.40
2017-09-15T13:13:08.458Z,1.10
2017-09-15T13:15:36.046Z,1.30
2017-09-15T13:18:04.634Z,1.30
2017-09-15T13:20:32.985Z,1.40
2017-09-15T13:23:00.573Z,1.40
2017-09-15T13:25:28.966Z,1.17
2017-09-15T13:27:56.546Z,2.03
2017-09-15T13:30:24.134Z,1.63
2017-09-15T13:32:51.762Z,1.80
2017-09-15T13:35:19.351Z,1.80
2017-09-15T13:37:46.929Z,1.83
2017-09-15T13:40:14.546Z,1.20
2017-09-15T13:42:42.127Z,1.40
2017-09-15T13:45:09.741Z,1.27
2017-09-15T13:47:37.328Z,1.60
2017-09-15T13:50:04.958Z,1.40
2017-09-15T13:52:32.537Z,1.17
2017-09-15T13:55:00.135Z,1.30
2017-09-15T13:57:27.872Z,0.90
2017-09-15T13:59:55.458Z,1.30
2017-09-15T14:02:23.042Z,1.13
2017-09-15T14:04:51.418Z,1.20
2017-09-15T14:07:19.812Z,1.30
2017-09-15T14:09:47.394Z,1.40
2017-09-15T14:12:14.983Z,1.13
2017-09-15T14:14:42.607Z,1.37
2017-09-15T14:17:10.190Z,1.17
2017-09-15T14:19:37.769Z,0.90
2017-09-15T14:22:05.376Z,1.00
2017-09-15T14:24:32.987Z,1.17
2017-09-15T14:27:00.561Z,1.10
2017-09-15T14:29:28.905Z,1.40
2017-09-15T14:31:56.514Z,1.00
2017-09-15T14:34:24.098Z,0.90
2017-09-15T14:36:51.734Z,0.80
2017-09-15T14:39:19.311Z,0.90
2017-09-15T14:41:46.905Z,0.90
2017-09-15T14:44:14.538Z,1.00
2017-09-15T14:46:42.117Z,1.13
2017-09-15T14:49:10.483Z,1.03
2017-09-15T14:51:38.099Z,1.30
2017-09-15T14:54:06.451Z,0.93
2017-09-15T14:56:34.085Z,1.50
2017-09-15T14:59:01.674Z,1.33
2017-09-15T15:01:30.026Z,1.10
2017-09-15T15:03:57.640Z,0.90
2017-09-15T15:06:25.279Z,1.13
2017-09-15T15:08:53.630Z,1.10
2017-09-15T15:11:21.214Z,1.00
2017-09-15T15:13:49.591Z,1.47
2017-09-15T15:16:17.937Z,1.00
2017-09-15T15:18:46.326Z,1.00
2017-09-15T15:21:13.918Z,0.70
2017-09-15T15:23:41.510Z,1.10
2017-09-15T15:26:09.329Z,0.90
2017-09-15T15:28:37.682Z,1.80
2017-09-15T15:31:05.270Z,2.00
2017-09-15T15:33:33.650Z,1.20
2017-09-15T15:36:02.027Z,0.97
2017-09-15T15:38:30.373Z,0.90
2017-09-15T15:40:57.987Z,1.20
2017-09-15T15:43:25.589Z,1.30
2017-09-15T15:45:53.169Z,1.03
2017-09-15T15:48:21.574Z,0.97
2017-09-15T15:50:49.162Z,1.13
2017-09-15T15:53:16.740Z,1.20
2017-09-15T15:55:44.346Z,0.77
2017-09-15T15:58:12.068Z,8.10
2017-09-15T16:00:39.649Z,1.10
2017-09-15T16:03:07.999Z,1.20
2017-09-15T16:05:35.638Z,0.80
2017-09-15T16:08:03.223Z,1.20
2017-09-15T16:10:30.805Z,0.87
2017-09-15T16:12:59.217Z,1.23
2017-09-15T16:15:26.797Z,1.27
2017-09-15T16:17:54.402Z,1.37
2017-09-15T16:20:22.777Z,1.00
2017-09-15T16:22:51.127Z,1.03
2017-09-15T16:25:18.714Z,1.57
2017-09-15T16:27:47.136Z,2.43
2017-09-15T16:30:14.720Z,1.53
2017-09-15T16:32:42.314Z,1.40
2017-09-15T16:35:10.698Z,1.60
2017-09-15T16:37:37.790Z,1.10
2017-09-15T16:40:11.259Z,1.73
2017-09-15T16:42:44.490Z,5.50
2017-09-15T16:45:17.941Z,1.33
2017-09-15T16:47:51.237Z,1.60
2017-09-15T16:50:18.863Z,1.30
2017-09-15T16:52:47.220Z,1.37
2017-09-15T16:55:14.822Z,2.05
2017-09-15T16:57:42.438Z,1.70
2017-09-15T17:00:10.030Z,3.60
2017-09-15T17:02:37.674Z,4.45
2017-09-15T17:05:06.030Z,2.20
2017-09-15T17:07:33.630Z,4.37
2017-09-15T17:10:01.250Z,6.47
2017-09-15T17:12:28.842Z,3.85
2017-09-15T17:14:56.488Z,1.80
2017-09-15T17:17:24.843Z,1.92
2017-09-15T17:19:52.484Z,2.40
2017-09-15T17:22:20.102Z,4.00
2017-09-15T17:24:47.696Z,3.35
2017-09-15T17:27:15.280Z,4.43
2017-09-15T17:29:42.899Z,3.72
2017-09-15T17:32:10.529Z,5.65
2017-09-15T17:34:38.886Z,9.10
2017-09-15T17:37:06.473Z,10.25
2017-09-15T17:39:34.114Z,12.57
2017-09-15T17:42:02.473Z,11.60
2017-09-15T17:44:30.058Z,3.40
2017-09-15T17:46:58.454Z,6.25
2017-09-15T17:49:26.034Z,5.28
2017-09-15T17:51:53.623Z,5.10
2017-09-15T17:54:21.255Z,3.80
2017-09-15T17:56:48.862Z,14.45
2017-09-15T17:59:17.226Z,5.90
2017-09-15T18:01:44.834Z,5.65
2017-09-15T18:04:12.465Z,6.25
2017-09-15T18:06:40.822Z,8.00
2017-09-15T18:09:08.415Z,6.53
2017-09-15T18:11:36.030Z,6.10
2017-09-15T18:14:03.622Z,7.37
2017-09-15T18:16:31.973Z,6.70
2017-09-15T18:18:59.689Z,5.75
2017-09-15T18:21:27.277Z,7.28
2017-09-15T18:23:55.634Z,6.35
2017-09-15T18:26:23.247Z,6.18
2017-09-15T18:28:51.601Z,5.87
2017-09-15T18:31:19.238Z,6.35
2017-09-15T18:33:46.827Z,4.65
2017-09-15T18:36:14.414Z,4.47
2017-09-15T18:38:42.797Z,5.95
2017-09-15T18:41:10.650Z,5.60
2017-09-15T18:43:40.960Z,4.25
2017-09-15T18:46:08.625Z,5.18
2017-09-15T18:48:37.022Z,5.20
2017-09-15T18:51:04.601Z,5.30
2017-09-15T18:53:32.197Z,4.75
2017-09-15T18:55:59.962Z,5.32
2017-09-15T18:58:27.562Z,3.70
2017-09-15T19:00:55.154Z,4.80
2017-09-15T19:03:22.974Z,4.15
2017-09-15T19:05:51.326Z,6.57
2017-09-15T19:08:18.911Z,5.35
2017-09-15T19:10:47.307Z,6.07
2017-09-15T19:13:14.889Z,5.30
2017-09-15T19:15:44.849Z,7.35
2017-09-15T19:20:45.895Z,6.25
2017-09-15T19:23:13.619Z,6.15
2017-09-15T19:25:41.203Z,5.87
2017-09-15T19:28:08.786Z,5.10
2017-09-15T19:30:36.426Z,6.10
2017-09-15T19:33:04.013Z,7.53
2017-09-15T19:38:04.349Z,9.20
2017-09-15T19:40:32.718Z,10.95
2017-09-15T19:43:00.301Z,20.45
2017-09-15T19:45:28.874Z,18.80
2017-09-15T19:47:57.226Z,25.17
2017-09-15T19:50:24.834Z,23.38
2017-09-15T19:52:52.451Z,22.33
2017-09-15T19:55:20.042Z,10.95
2017-09-15T19:57:47.894Z,9.35
2017-09-15T20:00:16.256Z,10.15
2017-09-15T20:02:43.837Z,9.20
2017-09-15T20:05:12.410Z,6.45
2017-09-15T20:07:40.761Z,7.57
2017-09-15T20:10:08.343Z,7.60
2017-09-15T20:12:36.730Z,6.00
2017-09-15T20:15:05.080Z,6.60
2017-09-15T20:17:32.673Z,9.70
2017-09-15T20:20:00.281Z,10.40
2017-09-15T20:22:27.873Z,6.90
2017-09-15T20:24:56.246Z,10.30
2017-09-15T20:27:24.597Z,7.25
2017-09-15T20:29:52.186Z,6.22
2017-09-15T20:32:20.602Z,6.55
2017-09-15T20:34:48.177Z,5.60
2017-09-15T20:37:15.767Z,6.87
2017-09-15T20:39:43.659Z,5.80
2017-09-15T20:42:11.242Z,7.62
2017-09-15T20:44:38.827Z,6.90
2017-09-15T20:47:06.458Z,6.75
2017-09-15T20:49:34.042Z,6.15
2017-09-15T20:52:01.622Z,6.50
2017-09-15T20:54:29.254Z,6.57
2017-09-15T20:56:57.612Z,7.05
2017-09-15T20:59:25.198Z,6.70
2017-09-15T21:01:52.818Z,5.93
2017-09-15T21:04:20.403Z,5.65
2017-09-15T21:06:47.993Z,5.60
2017-09-15T21:09:15.594Z,6.12
2017-09-15T21:11:43.192Z,5.80
2017-09-15T21:14:10.772Z,6.18
2017-09-15T21:16:38.529Z,7.05
2017-09-15T21:19:06.103Z,7.37
2017-09-15T21:21:33.678Z,7.15
2017-09-15T21:24:02.249Z,6.72
2017-09-15T21:26:30.598Z,5.82
2017-09-15T21:28:58.188Z,6.60
2017-09-15T21:31:26.589Z,5.37
2017-09-15T21:33:54.174Z,5.50
2017-09-15T21:36:21.754Z,4.65
2017-09-15T21:38:49.385Z,5.25
2017-09-15T21:41:16.966Z,5.90
2017-09-15T21:43:44.549Z,5.47
2017-09-15T21:46:12.169Z,4.30
2017-09-15T21:48:39.746Z,3.70
2017-09-15T21:51:07.327Z,5.37
2017-09-15T21:53:35.740Z,4.25
2017-09-15T21:56:03.326Z,5.20
2017-09-15T21:58:30.907Z,4.78
2017-09-15T22:00:58.501Z,4.95
2017-09-15T22:03:26.846Z,5.20
2017-09-15T22:05:54.418Z,4.47
2017-09-15T22:08:22.794Z,4.95
2017-09-15T22:10:50.378Z,6.00
2017-09-15T22:13:17.958Z,4.55
2017-09-15T22:15:45.563Z,3.70
2017-09-15T22:18:13.172Z,3.42
2017-09-15T22:20:40.847Z,4.53
2017-09-15T22:23:08.421Z,3.55
2017-09-15T22:25:36.053Z,3.45
2017-09-15T22:28:03.634Z,4.93
